sensor_id;sensor_type;location;lat;lon;timestamp;pressure;altitude;pressure_sealevel;temperature;humidity
28927;BME280;16038;47.692;9.400;2023-01-31T00:00:10;97625.25;;;0.02;100.00
28927;BME280;16038;47.692;9.400;2023-01-31T00:02:36;97625.25;;;0.02;100.00
28927;BME280;16038;47.692;9.400;2023-01-31T00:05:01;97619.91;;;-0.04;100.00
28927;BME280;16038;47.692;9.400;2023-01-31T00:07:26;97628.56;;;-0.17;100.00
28927;BME280;16038;47.692;9.400;2023-01-31T00:09:52;97625.31;;;-0.19;100.00
28927;BME280;16038;47.692;9.400;2023-01-31T00:12:17;97613.78;;;-0.25;100.00
28927;BME280;16038;47.692;9.400;2023-01-31T00:14:42;97620.78;;;-0.29;100.00
28927;BME280;16038;47.692;9.400;2023-01-31T00:17:07;97616.22;;;-0.39;100.00
28927;BME280;16038;47.692;9.400;2023-01-31T00:19:33;97611.94;;;-0.55;100.00
28927;BME280;16038;47.692;9.400;2023-01-31T00:21:58;97610.38;;;-0.61;100.00
28927;BME280;16038;47.692;9.400;2023-01-31T00:24:23;97610.09;;;-0.65;100.00
28927;BME280;16038;47.692;9.400;2023-01-31T00:26:49;97616.53;;;-0.61;100.00
28927;BME280;16038;47.692;9.400;2023-01-31T00:29:21;97607.94;;;-0.63;100.00
28927;BME280;16038;47.692;9.400;2023-01-31T00:31:46;97601.47;;;-0.67;100.00
28927;BME280;16038;47.692;9.400;2023-01-31T00:34:11;97603.38;;;-0.72;100.00
28927;BME280;16038;47.692;9.400;2023-01-31T00:36:37;97598.53;;;-0.81;100.00
28927;BME280;16038;47.692;9.400;2023-01-31T00:39:03;97600.69;;;-0.83;100.00
28927;BME280;16038;47.692;9.400;2023-01-31T00:41:28;97593.16;;;-0.86;100.00
28927;BME280;16038;47.692;9.400;2023-01-31T00:43:54;97585.63;;;-0.99;100.00
28927;BME280;16038;47.692;9.400;2023-01-31T00:46:20;97583.75;;;-1.04;100.00
28927;BME280;16038;47.692;9.400;2023-01-31T00:48:46;97586.19;;;-1.07;100.00
28927;BME280;16038;47.692;9.400;2023-01-31T00:51:11;97585.66;;;-1.20;100.00
28927;BME280;16038;47.692;9.400;2023-01-31T00:53:37;97585.66;;;-1.14;100.00
28927;BME280;16038;47.692;9.400;2023-01-31T00:56:03;97585.66;;;-1.14;100.00
28927;BME280;16038;47.692;9.400;2023-01-31T00:58:30;97588.84;;;-1.23;100.00
28927;BME280;16038;47.692;9.400;2023-01-31T01:00:55;97593.97;;;-1.31;100.00
28927;BME280;16038;47.692;9.400;2023-01-31T01:03:20;97595.59;;;-1.30;100.00
28927;BME280;16038;47.692;9.400;2023-01-31T01:05:46;97592.66;;;-1.19;100.00
28927;BME280;16038;47.692;9.400;2023-01-31T01:08:11;97590.75;;;-1.18;100.00
28927;BME280;16038;47.692;9.400;2023-01-31T01:10:36;97585.66;;;-1.20;100.00
28927;BME280;16038;47.692;9.400;2023-01-31T01:13:02;97581.06;;;-1.24;100.00
28927;BME280;16038;47.692;9.400;2023-01-31T01:15:27;97584.84;;;-1.25;100.00
28927;BME280;16038;47.692;9.400;2023-01-31T01:17:53;97581.06;;;-1.24;100.00
28927;BME280;16038;47.692;9.400;2023-01-31T01:20:18;97582.69;;;-1.18;100.00
28927;BME280;16038;47.692;9.400;2023-01-31T01:22:44;97584.81;;;-1.10;100.00
28927;BME280;16038;47.692;9.400;2023-01-31T01:25:09;97586.97;;;-1.07;100.00
28927;BME280;16038;47.692;9.400;2023-01-31T01:27:35;97582.44;;;-1.11;100.00
28927;BME280;16038;47.692;9.400;2023-01-31T01:30:01;97589.13;;;-1.14;100.00
28927;BME280;16038;47.692;9.400;2023-01-31T01:32:27;97597.72;;;-1.17;100.00
28927;BME280;16038;47.692;9.400;2023-01-31T01:34:52;97595.34;;;-1.19;100.00
28927;BME280;16038;47.692;9.400;2023-01-31T01:37:17;97606.34;;;-1.15;100.00
28927;BME280;16038;47.692;9.400;2023-01-31T01:39:46;97604.19;;;-0.98;100.00
28927;BME280;16038;47.692;9.400;2023-01-31T01:42:15;97609.03;;;-0.94;100.00
28927;BME280;16038;47.692;9.400;2023-01-31T01:49:40;97605.53;;;-0.85;100.00
28927;BME280;16038;47.692;9.400;2023-01-31T01:52:06;97614.38;;;-0.53;100.00
28927;BME280;16038;47.692;9.400;2023-01-31T01:54:39;97615.16;;;-0.37;100.00
28927;BME280;16038;47.692;9.400;2023-01-31T01:57:05;97617.81;;;-0.27;100.00
28927;BME280;16038;47.692;9.400;2023-01-31T02:01:56;97613.69;;;-0.04;100.00
28927;BME280;16038;47.692;9.400;2023-01-31T02:04:23;97621.53;;;-0.13;100.00
28927;BME280;16038;47.692;9.400;2023-01-31T02:06:49;97619.41;;;-0.11;100.00
28927;BME280;16038;47.692;9.400;2023-01-31T02:09:22;97625.56;;;-0.05;100.00
28927;BME280;16038;47.692;9.400;2023-01-31T02:11:49;97619.84;;;0.02;100.00
28927;BME280;16038;47.692;9.400;2023-01-31T02:14:15;97621.25;;;-0.06;100.00
28927;BME280;16038;47.692;9.400;2023-01-31T02:16:41;97625.84;;;-0.07;100.00
28927;BME280;16038;47.692;9.400;2023-01-31T02:19:11;97622.09;;;-0.11;100.00
28927;BME280;16038;47.692;9.400;2023-01-31T02:29:38;97614.53;;;-0.14;100.00
28927;BME280;16038;47.692;9.400;2023-01-31T02:37:36;97629.66;;;-0.18;100.00
28927;BME280;16038;47.692;9.400;2023-01-31T02:40:20;97622.03;;;-0.01;100.00
28927;BME280;16038;47.692;9.400;2023-01-31T02:45:15;97626.00;;;0.12;100.00
28927;BME280;16038;47.692;9.400;2023-01-31T02:50:25;97626.34;;;0.01;100.00
28927;BME280;16038;47.692;9.400;2023-01-31T02:53:02;97622.03;;;-0.06;100.00
28927;BME280;16038;47.692;9.400;2023-01-31T02:55:36;97622.09;;;-0.16;100.00
28927;BME280;16038;47.692;9.400;2023-01-31T02:58:21;97628.31;;;-0.26;100.00
28927;BME280;16038;47.692;9.400;2023-01-31T03:00:49;97629.13;;;-0.30;100.00
28927;BME280;16038;47.692;9.400;2023-01-31T03:03:21;97629.69;;;-0.33;100.00
28927;BME280;16038;47.692;9.400;2023-01-31T03:08:33;97622.38;;;-0.23;100.00
28927;BME280;16038;47.692;9.400;2023-01-31T03:10:59;97621.84;;;-0.20;100.00
28927;BME280;16038;47.692;9.400;2023-01-31T03:16:05;97631.25;;;-0.27;100.00
28927;BME280;16038;47.692;9.400;2023-01-31T03:21:19;97626.97;;;-0.23;100.00
28927;BME280;16038;47.692;9.400;2023-01-31T03:23:48;97622.09;;;-0.21;100.00
28927;BME280;16038;47.692;9.400;2023-01-31T03:26:15;97636.09;;;-0.19;100.00
28927;BME280;16038;47.692;9.400;2023-01-31T03:28:44;97640.94;;;-0.11;100.00
28927;BME280;16038;47.692;9.400;2023-01-31T03:31:15;97637.13;;;-0.05;100.00
28927;BME280;16038;47.692;9.400;2023-01-31T03:33:50;97639.28;;;-0.02;100.00
28927;BME280;16038;47.692;9.400;2023-01-31T03:38:46;97640.88;;;0.05;100.00
28927;BME280;16038;47.692;9.400;2023-01-31T03:41:15;97648.69;;;0.06;100.00
28927;BME280;16038;47.692;9.400;2023-01-31T03:43:49;97650.28;;;0.07;100.00
28927;BME280;16038;47.692;9.400;2023-01-31T03:46:20;97650.84;;;0.09;100.00
28927;BME280;16038;47.692;9.400;2023-01-31T03:48:47;97646.50;;;0.08;100.00
28927;BME280;16038;47.692;9.400;2023-01-31T03:51:17;97649.19;;;0.13;100.00
28927;BME280;16038;47.692;9.400;2023-01-31T03:53:45;97659.69;;;0.15;100.00
28927;BME280;16038;47.692;9.400;2023-01-31T03:56:16;97660.22;;;0.17;100.00
28927;BME280;16038;47.692;9.400;2023-01-31T03:58:44;97655.09;;;0.15;100.00
28927;BME280;16038;47.692;9.400;2023-01-31T04:01:11;97659.97;;;0.13;100.00
28927;BME280;16038;47.692;9.400;2023-01-31T04:03:46;97659.44;;;0.11;100.00
28927;BME280;16038;47.692;9.400;2023-01-31T04:06:13;97664.00;;;0.11;100.00
28927;BME280;16038;47.692;9.400;2023-01-31T04:08:39;97669.13;;;0.07;100.00
28927;BME280;16038;47.692;9.400;2023-01-31T04:11:05;97672.66;;;-0.03;100.00
28927;BME280;16038;47.692;9.400;2023-01-31T04:13:32;97670.25;;;-0.09;100.00
28927;BME280;16038;47.692;9.400;2023-01-31T04:15:58;97669.72;;;-0.06;100.00
28927;BME280;16038;47.692;9.400;2023-01-31T04:18:23;97662.16;;;-0.04;100.00
28927;BME280;16038;47.692;9.400;2023-01-31T04:20:49;97667.03;;;-0.06;100.00
28927;BME280;16038;47.692;9.400;2023-01-31T04:23:14;97664.59;;;-0.08;100.00
28927;BME280;16038;47.692;9.400;2023-01-31T04:25:39;97666.22;;;-0.07;100.00
28927;BME280;16038;47.692;9.400;2023-01-31T04:28:04;97662.22;;;-0.14;100.00
28927;BME280;16038;47.692;9.400;2023-01-31T04:30:30;97665.72;;;-0.19;100.00
28927;BME280;16038;47.692;9.400;2023-01-31T04:32:55;97658.72;;;-0.20;100.00
28927;BME280;16038;47.692;9.400;2023-01-31T04:35:21;97661.97;;;-0.23;100.00
28927;BME280;16038;47.692;9.400;2023-01-31T04:37:46;97663.34;;;-0.36;100.00
28927;BME280;16038;47.692;9.400;2023-01-31T04:40:11;97675.72;;;-0.45;100.00
28927;BME280;16038;47.692;9.400;2023-01-31T04:42:39;97663.88;;;-0.49;100.00
28927;BME280;16038;47.692;9.400;2023-01-31T04:45:05;97671.69;;;-0.43;100.00
28927;BME280;16038;47.692;9.400;2023-01-31T04:47:30;97672.47;;;-0.32;100.00
28927;BME280;16038;47.692;9.400;2023-01-31T04:49:55;97678.41;;;-0.35;100.00
28927;BME280;16038;47.692;9.400;2023-01-31T04:52:20;97674.34;;;-0.27;100.00
28927;BME280;16038;47.692;9.400;2023-01-31T04:54:48;97675.16;;;-0.32;100.00
28927;BME280;16038;47.692;9.400;2023-01-31T04:57:13;97674.91;;;-0.30;100.00
28927;BME280;16038;47.692;9.400;2023-01-31T04:59:39;97673.00;;;-0.35;100.00
28927;BME280;16038;47.692;9.400;2023-01-31T05:02:04;97662.25;;;-0.35;100.00
28927;BME280;16038;47.692;9.400;2023-01-31T05:04:29;97664.66;;;-0.39;100.00
28927;BME280;16038;47.692;9.400;2023-01-31T05:06:54;97666.56;;;-0.44;100.00
28927;BME280;16038;47.692;9.400;2023-01-31T05:09:20;97668.19;;;-0.48;100.00
28927;BME280;16038;47.692;9.400;2023-01-31T05:11:46;97679.22;;;-0.50;100.00
28927;BME280;16038;47.692;9.400;2023-01-31T05:14:12;97677.06;;;-0.53;100.00
28927;BME280;16038;47.692;9.400;2023-01-31T05:16:39;97681.66;;;-0.59;100.00
28927;BME280;16038;47.692;9.400;2023-01-31T05:19:04;97683.53;;;-0.64;100.00
28927;BME280;16038;47.692;9.400;2023-01-31T05:21:29;97679.78;;;-0.68;100.00
28927;BME280;16038;47.692;9.400;2023-01-31T05:24:14;97684.06;;;-0.72;100.00
28927;BME280;16038;47.692;9.400;2023-01-31T05:26:40;97693.22;;;-0.79;100.00
28927;BME280;16038;47.692;9.400;2023-01-31T05:29:05;97694.28;;;-0.74;100.00
28927;BME280;16038;47.692;9.400;2023-01-31T05:31:31;97701.28;;;-0.79;100.00
28927;BME280;16038;47.692;9.400;2023-01-31T05:33:56;97702.09;;;-0.93;100.00
28927;BME280;16038;47.692;9.400;2023-01-31T05:36:22;97698.88;;;-1.01;100.00
28927;BME280;16038;47.692;9.400;2023-01-31T05:38:47;97705.81;;;-1.05;100.00
28927;BME280;16038;47.692;9.400;2023-01-31T05:41:13;97709.34;;;-1.04;100.00
28927;BME280;16038;47.692;9.400;2023-01-31T05:43:38;97706.94;;;-1.01;100.00
28927;BME280;16038;47.692;9.400;2023-01-31T05:46:03;97710.41;;;-1.00;100.00
28927;BME280;16038;47.692;9.400;2023-01-31T05:48:29;97710.16;;;-0.93;100.00
28927;BME280;16038;47.692;9.400;2023-01-31T05:50:54;97714.72;;;-0.89;100.00
28927;BME280;16038;47.692;9.400;2023-01-31T05:53:19;97716.09;;;-0.86;100.00
28927;BME280;16038;47.692;9.400;2023-01-31T05:55:46;97716.91;;;-0.86;100.00
28927;BME280;16038;47.692;9.400;2023-01-31T05:58:13;97708.81;;;-0.86;100.00
28927;BME280;16038;47.692;9.400;2023-01-31T06:00:39;97723.63;;;-0.93;100.00
28927;BME280;16038;47.692;9.400;2023-01-31T06:03:04;97713.91;;;-1.05;100.00
28927;BME280;16038;47.692;9.400;2023-01-31T06:05:29;97722.22;;;-1.06;100.00
28927;BME280;16038;47.692;9.400;2023-01-31T06:07:55;97717.41;;;-1.04;100.00
28927;BME280;16038;47.692;9.400;2023-01-31T06:10:20;97727.63;;;-1.01;100.00
28927;BME280;16038;47.692;9.400;2023-01-31T06:12:46;97728.72;;;-0.97;100.00
28927;BME280;16038;47.692;9.400;2023-01-31T06:15:11;97724.41;;;-0.98;100.00
28927;BME280;16038;47.692;9.400;2023-01-31T06:17:36;97717.41;;;-0.89;100.00
28927;BME280;16038;47.692;9.400;2023-01-31T06:20:02;97715.00;;;-0.85;100.00
28927;BME280;16038;47.692;9.400;2023-01-31T06:22:28;97709.63;;;-0.80;100.00
28927;BME280;16038;47.692;9.400;2023-01-31T06:24:53;97719.53;;;-1.01;100.00
28927;BME280;16038;47.692;9.400;2023-01-31T06:27:19;97723.28;;;-1.18;100.00
28927;BME280;16038;47.692;9.400;2023-01-31T06:29:44;97723.78;;;-1.31;100.00
28927;BME280;16038;47.692;9.400;2023-01-31T06:32:09;97723.50;;;-1.40;100.00
28927;BME280;16038;47.692;9.400;2023-01-31T06:34:34;97721.34;;;-1.38;100.00
28927;BME280;16038;47.692;9.400;2023-01-31T06:37:00;97727.31;;;-1.25;100.00
28927;BME280;16038;47.692;9.400;2023-01-31T06:39:25;97725.69;;;-1.21;100.00
28927;BME280;16038;47.692;9.400;2023-01-31T06:41:51;97727.31;;;-1.10;100.00
28927;BME280;16038;47.692;9.400;2023-01-31T06:44:16;97728.72;;;-0.97;100.00
28927;BME280;16038;47.692;9.400;2023-01-31T06:46:41;97735.97;;;-0.87;100.00
28927;BME280;16038;47.692;9.400;2023-01-31T06:49:06;97733.06;;;-0.75;100.00
28927;BME280;16038;47.692;9.400;2023-01-31T06:51:32;97743.00;;;-0.55;100.00
28927;BME280;16038;47.692;9.400;2023-01-31T06:53:57;97745.72;;;-0.50;100.00
28927;BME280;16038;47.692;9.400;2023-01-31T06:56:22;97742.19;;;-0.41;100.00
28927;BME280;16038;47.692;9.400;2023-01-31T06:58:47;97737.88;;;-0.31;100.00
28927;BME280;16038;47.692;9.400;2023-01-31T07:01:13;97734.66;;;-0.33;100.00
28927;BME280;16038;47.692;9.400;2023-01-31T07:03:39;97734.94;;;-0.35;100.00
28927;BME280;16038;47.692;9.400;2023-01-31T07:06:04;97734.91;;;-0.40;100.00
28927;BME280;16038;47.692;9.400;2023-01-31T07:08:30;97727.41;;;-0.48;100.00
28927;BME280;16038;47.692;9.400;2023-01-31T07:10:56;97726.31;;;-0.42;100.00
28927;BME280;16038;47.692;9.400;2023-01-31T07:13:22;97731.16;;;-0.44;100.00
28927;BME280;16038;47.692;9.400;2023-01-31T07:15:47;97726.84;;;-0.40;100.00
28927;BME280;16038;47.692;9.400;2023-01-31T07:18:13;97724.72;;;-0.48;100.00
28927;BME280;16038;47.692;9.400;2023-01-31T07:20:41;97734.38;;;-0.47;100.00
28927;BME280;16038;47.692;9.400;2023-01-31T07:23:06;97730.63;;;-0.41;100.00
28927;BME280;16038;47.692;9.400;2023-01-31T07:25:33;97741.41;;;-0.36;100.00
28927;BME280;16038;47.692;9.400;2023-01-31T07:27:59;97743.81;;;-0.34;100.00
28927;BME280;16038;47.692;9.400;2023-01-31T07:30:25;97747.81;;;-0.16;100.00
28927;BME280;16038;47.692;9.400;2023-01-31T07:32:50;97752.13;;;0.00;100.00
28927;BME280;16038;47.692;9.400;2023-01-31T07:35:16;97758.84;;;0.03;100.00
28927;BME280;16038;47.692;9.400;2023-01-31T07:37:41;97752.63;;;0.12;100.00
28927;BME280;16038;47.692;9.400;2023-01-31T07:40:08;97746.69;;;0.15;100.00
28927;BME280;16038;47.692;9.400;2023-01-31T07:42:33;97735.66;;;0.12;100.00
28927;BME280;16038;47.692;9.400;2023-01-31T07:44:59;97741.56;;;0.24;100.00
28927;BME280;16038;47.692;9.400;2023-01-31T07:47:24;97746.69;;;0.26;100.00
28927;BME280;16038;47.692;9.400;2023-01-31T07:49:49;97744.28;;;0.14;100.00
28927;BME280;16038;47.692;9.400;2023-01-31T07:52:15;97739.16;;;0.12;100.00
28927;BME280;16038;47.692;9.400;2023-01-31T07:54:40;97734.84;;;0.16;100.00
28927;BME280;16038;47.692;9.400;2023-01-31T07:57:05;97740.69;;;0.44;100.00
28927;BME280;16038;47.692;9.400;2023-01-31T07:59:31;97740.84;;;0.73;100.00
28927;BME280;16038;47.692;9.400;2023-01-31T08:01:56;97746.72;;;0.86;100.00
28927;BME280;16038;47.692;9.400;2023-01-31T08:04:42;97737.97;;;1.04;100.00
28927;BME280;16038;47.692;9.400;2023-01-31T08:07:07;97729.44;;;1.31;100.00
28927;BME280;16038;47.692;9.400;2023-01-31T08:09:34;97731.28;;;1.36;100.00
28927;BME280;16038;47.692;9.400;2023-01-31T08:11:59;97728.25;;;1.48;100.00
28927;BME280;16038;47.692;9.400;2023-01-31T08:14:25;97731.13;;;1.57;100.00
28927;BME280;16038;47.692;9.400;2023-01-31T08:16:52;97736.47;;;1.62;100.00
28927;BME280;16038;47.692;9.400;2023-01-31T08:19:18;97747.78;;;2.27;100.00
28927;BME280;16038;47.692;9.400;2023-01-31T08:21:43;97748.78;;;2.80;100.00
28927;BME280;16038;47.692;9.400;2023-01-31T08:24:08;97738.00;;;3.37;100.00
28927;BME280;16038;47.692;9.400;2023-01-31T08:26:34;97735.44;;;3.92;95.91
28927;BME280;16038;47.692;9.400;2023-01-31T08:28:59;97742.75;;;4.94;91.74
28927;BME280;16038;47.692;9.400;2023-01-31T08:31:25;97740.06;;;5.75;85.07
28927;BME280;16038;47.692;9.400;2023-01-31T08:33:51;97750.59;;;4.95;83.08
28927;BME280;16038;47.692;9.400;2023-01-31T08:38:45;97746.88;;;4.64;85.55
28927;BME280;16038;47.692;9.400;2023-01-31T08:41:11;97751.69;;;4.25;86.22
28927;BME280;16038;47.692;9.400;2023-01-31T08:43:37;97740.63;;;4.08;88.42
28927;BME280;16038;47.692;9.400;2023-01-31T08:46:05;97742.94;;;3.81;90.78
28927;BME280;16038;47.692;9.400;2023-01-31T08:48:34;97748.50;;;3.38;95.19
28927;BME280;16038;47.692;9.400;2023-01-31T08:51:03;97751.00;;;3.16;98.35
28927;BME280;16038;47.692;9.400;2023-01-31T08:53:29;97750.22;;;3.15;96.88
28927;BME280;16038;47.692;9.400;2023-01-31T08:55:58;97756.56;;;3.05;97.94
28927;BME280;16038;47.692;9.400;2023-01-31T08:58:24;97759.34;;;3.38;96.78
28927;BME280;16038;47.692;9.400;2023-01-31T09:00:49;97753.03;;;3.24;95.58
28927;BME280;16038;47.692;9.400;2023-01-31T09:03:14;97755.22;;;2.84;97.41
28927;BME280;16038;47.692;9.400;2023-01-31T09:05:43;97752.03;;;2.58;99.56
28927;BME280;16038;47.692;9.400;2023-01-31T09:08:09;97749.63;;;2.75;100.00
28927;BME280;16038;47.692;9.400;2023-01-31T09:10:34;97745.59;;;3.16;98.90
28927;BME280;16038;47.692;9.400;2023-01-31T09:13:00;97754.13;;;3.42;97.45
28927;BME280;16038;47.692;9.400;2023-01-31T09:15:25;97748.50;;;3.90;94.58
28927;BME280;16038;47.692;9.400;2023-01-31T09:17:51;97737.03;;;4.68;89.97
28927;BME280;16038;47.692;9.400;2023-01-31T09:20:16;97731.97;;;5.03;87.45
28927;BME280;16038;47.692;9.400;2023-01-31T09:22:41;97738.50;;;5.38;87.77
28927;BME280;16038;47.692;9.400;2023-01-31T09:25:07;97736.72;;;6.01;78.51
28927;BME280;16038;47.692;9.400;2023-01-31T09:27:33;97735.06;;;6.14;79.89
28927;BME280;16038;47.692;9.400;2023-01-31T09:29:59;97727.81;;;5.87;78.26
28927;BME280;16038;47.692;9.400;2023-01-31T09:32:24;97732.22;;;6.28;79.00
28927;BME280;16038;47.692;9.400;2023-01-31T09:34:50;97730.56;;;5.64;79.38
28927;BME280;16038;47.692;9.400;2023-01-31T09:37:15;97739.81;;;5.63;80.55
28927;BME280;16038;47.692;9.400;2023-01-31T09:39:41;97739.31;;;5.39;82.97
28927;BME280;16038;47.692;9.400;2023-01-31T09:42:12;97743.41;;;7.24;74.78
28927;BME280;16038;47.692;9.400;2023-01-31T09:44:40;97739.16;;;6.83;73.93
28927;BME280;16038;47.692;9.400;2023-01-31T09:47:14;97748.03;;;6.48;70.61
28927;BME280;16038;47.692;9.400;2023-01-31T09:49:46;97740.47;;;6.94;72.30
28927;BME280;16038;47.692;9.400;2023-01-31T09:52:12;97735.06;;;7.29;70.51
28927;BME280;16038;47.692;9.400;2023-01-31T09:54:38;97737.38;;;8.18;66.59
28927;BME280;16038;47.692;9.400;2023-01-31T09:59:41;97738.63;;;8.76;62.32
28927;BME280;16038;47.692;9.400;2023-01-31T10:02:29;97737.78;;;7.64;66.71
28927;BME280;16038;47.692;9.400;2023-01-31T10:10:20;97735.00;;;7.99;64.55
28927;BME280;16038;47.692;9.400;2023-01-31T10:12:50;97725.56;;;8.05;63.72
28927;BME280;16038;47.692;9.400;2023-01-31T10:17:44;97730.00;;;8.18;64.47
28927;BME280;16038;47.692;9.400;2023-01-31T10:20:18;97721.00;;;8.65;63.07
28927;BME280;16038;47.692;9.400;2023-01-31T10:22:46;97728.38;;;8.17;62.99
28927;BME280;16038;47.692;9.400;2023-01-31T10:27:43;97720.50;;;8.24;62.88
28927;BME280;16038;47.692;9.400;2023-01-31T10:30:15;97713.13;;;6.50;67.04
28927;BME280;16038;47.692;9.400;2023-01-31T10:32:42;97707.31;;;5.58;72.33
28927;BME280;16038;47.692;9.400;2023-01-31T10:35:34;97704.41;;;5.54;74.03
28927;BME280;16038;47.692;9.400;2023-01-31T10:38:06;97699.22;;;6.21;71.51
28927;BME280;16038;47.692;9.400;2023-01-31T10:40:38;97709.78;;;6.54;70.93
28927;BME280;16038;47.692;9.400;2023-01-31T10:43:09;97704.28;;;7.28;67.36
28927;BME280;16038;47.692;9.400;2023-01-31T10:45:35;97697.84;;;7.77;65.09
28927;BME280;16038;47.692;9.400;2023-01-31T10:48:18;97707.31;;;7.18;66.42
28927;BME280;16038;47.692;9.400;2023-01-31T10:58:15;97686.63;;;8.26;61.88
28927;BME280;16038;47.692;9.400;2023-01-31T11:00:41;97676.78;;;8.33;60.10
28927;BME280;16038;47.692;9.400;2023-01-31T11:03:08;97682.63;;;7.50;63.03
28927;BME280;16038;47.692;9.400;2023-01-31T11:05:34;97678.47;;;7.00;66.10
28927;BME280;16038;47.692;9.400;2023-01-31T11:08:05;97675.03;;;6.59;67.41
28927;BME280;16038;47.692;9.400;2023-01-31T11:10:51;97670.22;;;6.56;68.35
28927;BME280;16038;47.692;9.400;2023-01-31T11:13:17;97667.22;;;6.84;67.16
28927;BME280;16038;47.692;9.400;2023-01-31T11:15:43;97673.94;;;6.69;68.68
28927;BME280;16038;47.692;9.400;2023-01-31T11:18:12;97664.66;;;6.12;69.28
28927;BME280;16038;47.692;9.400;2023-01-31T11:20:45;97660.09;;;5.99;70.33
28927;BME280;16038;47.692;9.400;2023-01-31T11:23:12;97651.00;;;5.50;71.54
28927;BME280;16038;47.692;9.400;2023-01-31T11:25:42;97635.19;;;5.07;74.66
28927;BME280;16038;47.692;9.400;2023-01-31T11:28:52;97643.00;;;5.22;74.82
28927;BME280;16038;47.692;9.400;2023-01-31T11:30:59;97637.78;;;5.34;74.14
28927;BME280;16038;47.692;9.400;2023-01-31T11:33:41;97645.38;;;5.46;74.72
28927;BME280;16038;47.692;9.400;2023-01-31T11:36:10;97629.78;;;5.07;76.08
28927;BME280;16038;47.692;9.400;2023-01-31T11:38:36;97624.38;;;4.70;77.52
28927;BME280;16038;47.692;9.400;2023-01-31T11:41:01;97629.22;;;4.96;78.25
28927;BME280;16038;47.692;9.400;2023-01-31T11:43:46;97625.72;;;4.82;77.81
28927;BME280;16038;47.692;9.400;2023-01-31T11:46:11;97623.91;;;4.54;80.29
28927;BME280;16038;47.692;9.400;2023-01-31T11:48:41;97602.56;;;4.62;80.29
28927;BME280;16038;47.692;9.400;2023-01-31T11:51:06;97609.97;;;4.70;80.07
28927;BME280;16038;47.692;9.400;2023-01-31T11:53:37;97604.53;;;4.70;80.32
28927;BME280;16038;47.692;9.400;2023-01-31T11:56:11;97595.72;;;4.64;80.83
28927;BME280;16038;47.692;9.400;2023-01-31T11:58:37;97592.66;;;4.79;79.87
28927;BME280;16038;47.692;9.400;2023-01-31T12:03:29;97577.94;;;4.72;81.54
28927;BME280;16038;47.692;9.400;2023-01-31T12:06:01;97567.63;;;5.05;80.66
28927;BME280;16038;47.692;9.400;2023-01-31T12:10:52;97552.97;;;4.47;81.73
28927;BME280;16038;47.692;9.400;2023-01-31T12:13:18;97562.84;;;4.66;81.72
28927;BME280;16038;47.692;9.400;2023-01-31T12:15:49;97573.53;;;5.61;79.37
28927;BME280;16038;47.692;9.400;2023-01-31T12:18:20;97585.97;;;6.42;72.15
28927;BME280;16038;47.692;9.400;2023-01-31T12:20:52;97578.50;;;7.65;68.70
28927;BME280;16038;47.692;9.400;2023-01-31T12:23:38;97578.16;;;7.02;67.11
28927;BME280;16038;47.692;9.400;2023-01-31T12:26:20;97571.94;;;7.75;65.61
28927;BME280;16038;47.692;9.400;2023-01-31T12:38:43;97581.38;;;9.09;59.43
28927;BME280;16038;47.692;9.400;2023-01-31T13:02:35;97537.78;;;8.58;59.16
28927;BME280;16038;47.692;9.400;2023-01-31T13:07:49;97545.13;;;8.66;57.36
28927;BME280;16038;47.692;9.400;2023-01-31T13:10:19;97549.44;;;8.67;57.97
28927;BME280;16038;47.692;9.400;2023-01-31T13:12:48;97548.06;;;9.15;57.47
28927;BME280;16038;47.692;9.400;2023-01-31T13:17:49;97545.38;;;8.73;57.03
28927;BME280;16038;47.692;9.400;2023-01-31T13:20:25;97536.81;;;7.17;62.68
28927;BME280;16038;47.692;9.400;2023-01-31T13:22:54;97547.41;;;6.93;64.23
28927;BME280;16038;47.692;9.400;2023-01-31T13:27:59;97549.84;;;6.59;64.42
28927;BME280;16038;47.692;9.400;2023-01-31T13:32:54;97542.94;;;6.36;65.22
28927;BME280;16038;47.692;9.400;2023-01-31T13:35:31;97545.00;;;6.39;66.20
28927;BME280;16038;47.692;9.400;2023-01-31T13:37:59;97530.69;;;5.98;66.23
28927;BME280;16038;47.692;9.400;2023-01-31T13:40:26;97517.19;;;5.84;66.83
28927;BME280;16038;47.692;9.400;2023-01-31T13:42:53;97498.50;;;5.43;67.67
28927;BME280;16038;47.692;9.400;2023-01-31T13:45:32;97494.53;;;5.17;68.66
28927;BME280;16038;47.692;9.400;2023-01-31T13:48:07;97510.97;;;5.12;69.88
28927;BME280;16038;47.692;9.400;2023-01-31T13:50:36;97514.03;;;5.20;70.68
28927;BME280;16038;47.692;9.400;2023-01-31T13:53:04;97519.56;;;5.37;69.82
28927;BME280;16038;47.692;9.400;2023-01-31T13:55:35;97518.91;;;5.31;70.49
28927;BME280;16038;47.692;9.400;2023-01-31T13:58:34;97510.88;;;5.26;70.81
28927;BME280;16038;47.692;9.400;2023-01-31T14:03:42;97511.72;;;5.04;71.05
28927;BME280;16038;47.692;9.400;2023-01-31T14:06:16;97514.13;;;5.06;71.40
28927;BME280;16038;47.692;9.400;2023-01-31T14:13:42;97513.53;;;4.86;73.88
28927;BME280;16038;47.692;9.400;2023-01-31T14:18:54;97517.09;;;4.73;72.94
28927;BME280;16038;47.692;9.400;2023-01-31T14:23:51;97524.63;;;4.76;73.50
28927;BME280;16038;47.692;9.400;2023-01-31T14:31:34;97511.47;;;4.69;73.68
28927;BME280;16038;47.692;9.400;2023-01-31T14:33:59;97508.44;;;4.48;75.41
28927;BME280;16038;47.692;9.400;2023-01-31T14:36:38;97510.56;;;4.15;75.22
28927;BME280;16038;47.692;9.400;2023-01-31T14:41:54;97524.22;;;4.10;76.13
28927;BME280;16038;47.692;9.400;2023-01-31T14:44:44;97510.47;;;3.92;76.22
28927;BME280;16038;47.692;9.400;2023-01-31T14:47:19;97506.59;;;3.98;77.04
28927;BME280;16038;47.692;9.400;2023-01-31T14:49:52;97519.34;;;3.84;78.14
28927;BME280;16038;47.692;9.400;2023-01-31T14:57:52;97518.03;;;3.95;78.82
28927;BME280;16038;47.692;9.400;2023-01-31T15:19:06;97497.56;;;3.75;81.15
28927;BME280;16038;47.692;9.400;2023-01-31T15:21:35;97505.19;;;3.59;81.24
28927;BME280;16038;47.692;9.400;2023-01-31T15:24:02;97503.41;;;3.55;82.06
28927;BME280;16038;47.692;9.400;2023-01-31T15:26:29;97488.03;;;3.78;82.16
28927;BME280;16038;47.692;9.400;2023-01-31T15:28:56;97491.06;;;3.62;81.56
28927;BME280;16038;47.692;9.400;2023-01-31T15:31:25;97518.84;;;3.54;81.38
28927;BME280;16038;47.692;9.400;2023-01-31T15:33:52;97525.97;;;3.64;81.25